地図

経路データ

SID SEASON NUMBER BASIN SUBBASIN NAME ISO_TIME NATURE LAT LON WMO_WIND WMO_PRES WMO_AGENCY TRACK_TYPE DIST2LAND LANDFALL IFLAG USA_AGENCY USA_ATCF_ID USA_LAT USA_LON USA_RECORD USA_STATUS USA_WIND USA_PRES USA_SSHS USA_R34_NE USA_R34_SE USA_R34_SW USA_R34_NW USA_R50_NE USA_R50_SE USA_R50_SW USA_R50_NW USA_R64_NE USA_R64_SE USA_R64_SW USA_R64_NW USA_POCI USA_ROCI USA_RMW USA_EYE TOKYO_LAT TOKYO_LON TOKYO_GRADE TOKYO_WIND TOKYO_PRES TOKYO_R50_DIR TOKYO_R50_LONG TOKYO_R50_SHORT TOKYO_R30_DIR TOKYO_R30_LONG TOKYO_R30_SHORT TOKYO_LAND CMA_LAT CMA_LON CMA_CAT CMA_WIND CMA_PRES HKO_LAT HKO_LON HKO_CAT HKO_WIND HKO_PRES NEWDELHI_LAT NEWDELHI_LON NEWDELHI_GRADE NEWDELHI_WIND NEWDELHI_PRES NEWDELHI_CI NEWDELHI_DP NEWDELHI_POCI REUNION_LAT REUNION_LON REUNION_TYPE REUNION_WIND REUNION_PRES REUNION_TNUM REUNION_CI REUNION_RMW REUNION_R34_NE REUNION_R34_SE REUNION_R34_SW REUNION_R34_NW REUNION_R50_NE REUNION_R50_SE REUNION_R50_SW REUNION_R50_NW REUNION_R64_NE REUNION_R64_SE REUNION_R64_SW REUNION_R64_NW BOM_LAT BOM_LON BOM_TYPE BOM_WIND BOM_PRES BOM_TNUM BOM_CI BOM_RMW BOM_R34_NE BOM_R34_SE BOM_R34_SW BOM_R34_NW BOM_R50_NE BOM_R50_SE BOM_R50_SW BOM_R50_NW BOM_R64_NE BOM_R64_SE BOM_R64_SW BOM_R64_NW BOM_ROCI BOM_POCI BOM_EYE BOM_POS_METHOD BOM_PRES_METHOD NADI_LAT NADI_LON NADI_CAT NADI_WIND NADI_PRES WELLINGTON_LAT WELLINGTON_LON WELLINGTON_WIND WELLINGTON_PRES DS824_LAT DS824_LON DS824_STAGE DS824_WIND DS824_PRES TD9636_LAT TD9636_LON TD9636_STAGE TD9636_WIND TD9636_PRES TD9635_LAT TD9635_LON TD9635_WIND TD9635_PRES TD9635_ROCI NEUMANN_LAT NEUMANN_LON NEUMANN_CLASS NEUMANN_WIND NEUMANN_PRES MLC_LAT MLC_LON MLC_CLASS MLC_WIND MLC_PRES USA_GUST BOM_GUST BOM_GUST_PER REUNION_GUST REUNION_GUST_PER USA_SEAHGT USA_SEARAD_NE USA_SEARAD_SE USA_SEARAD_SW USA_SEARAD_NW STORM_SPEED STORM_DIR
1990031S09070 1990 9 SI MM DETY 1990-01-30 18:00:00 TS -9.00000 70.0000 main 1814 1814 O___________O_ jtwc_sh SH151990 -9.00000 70.0000 20 -1 -9.00000 70.0000 TC 20 1 0
1990031S09070 1990 9 SI MM DETY 1990-01-30 21:00:00 TS -9.04000 70.0100 main 1814 1806 P___________P_ SH151990 -9.04000 70.0100 20 -1 -9.04000 70.0100 TC 20 1 0
1990031S09070 1990 9 SI MM DETY 1990-01-31 00:00:00 TS -9.10000 70.0000 main 1806 1798 O___________O_ jtwc_sh SH151990 -9.10000 70.0000 20 -1 -9.10000 70.0000 TC 20 2 201
1990031S09070 1990 9 SI MM DETY 1990-01-31 03:00:00 TS -9.19250 69.9575 main 1798 1782 P___________P_ SH151990 -9.19250 69.9575 20 -1 -9.19250 69.9575 TC 20 2 207
1990031S09070 1990 9 SI MM DETY 1990-01-31 06:00:00 TS -9.30000 69.9000 main 1782 1774 O___________O_ jtwc_sh SH151990 -9.30000 69.9000 20 -1 -9.30000 69.9000 TC 20 2 206
1990031S09070 1990 9 SI MM DETY 1990-01-31 09:00:00 TS -9.39999 69.8575 main 1774 1759 P___________P_ SH151990 -9.39999 69.8575 20 -1 -9.39999 69.8575 TC 20 2 207
1990031S09070 1990 9 SI MM DETY 1990-01-31 12:00:00 TS -9.50000 69.8000 main 1759 1743 O___________O_ jtwc_sh SH151990 -9.50000 69.8000 20 -1 -9.50000 69.8000 TC 20 3 217
1990031S09070 1990 9 SI MM DETY 1990-01-31 15:00:00 TS -9.60751 69.7000 main 1743 1727 P___________P_ SH151990 -9.60751 69.7000 20 -1 -9.60751 69.7000 TC 20 3 225
1990031S09070 1990 9 SI MM DETY 1990-01-31 18:00:00 TS -9.70000 69.6000 main 1727 1712 O___________O_ jtwc_sh SH151990 -9.70000 69.6000 20 -1 -9.70000 69.6000 TC 20 2 227
1990031S09070 1990 9 SI MM DETY 1990-01-31 21:00:00 TS -9.75750 69.5350 main 1712 1712 P___________P_ SH151990 -9.75750 69.5350 20 -1 -9.75750 69.5350 TC 20 1 223
1990031S09070 1990 9 SI MM DETY 1990-02-01 00:00:00 TS -9.80000 69.5000 main 1712 1712 O___________O_ jtwc_sh SH151990 -9.80000 69.5000 20 -1 -9.80000 69.5000 TC 20 1 197
1990031S09070 1990 9 SI MM DETY 1990-02-01 03:00:00 TS -9.85000 69.4925 main 1712 1704 P___________P_ SH151990 -9.85000 69.4925 20 -1 -9.85000 69.4925 TC 20 1 0
1990031S09070 1990 9 SI MM DETY 1990-02-01 06:00:00 TS -9.90000 69.5000 main 1704 1704 O___________O_ jtwc_sh SH151990 -9.90000 69.5000 20 -1 -9.90000 69.5000 TC 20 1 0
1990031S09070 1990 9 SI MM DETY 1990-02-01 09:00:00 TS -9.95000 69.5000 main 1704 1696 P___________P_ SH151990 -9.95000 69.5000 20 -1 -9.95000 69.5000 TC 20 1 0
1990031S09070 1990 9 SI MM DETY 1990-02-01 12:00:00 TS -10.0000 69.5000 main 1696 1696 O___________O_ jtwc_sh SH151990 -10.0000 69.5000 20 -1 -10.0000 69.5000 TC 20 1 0
1990031S09070 1990 9 SI MM DETY 1990-02-01 15:00:00 TS -10.0500 69.5000 main 1696 1689 P___________P_ SH151990 -10.0500 69.5000 20 -1 -10.0500 69.5000 TC 20 1 0
1990031S09070 1990 9 SI MM DETY 1990-02-01 18:00:00 TS -10.1000 69.5000 main 1689 1689 O___________O_ jtwc_sh SH151990 -10.1000 69.5000 20 -1 -10.1000 69.5000 TC 20 1 191
1990031S09070 1990 9 SI MM DETY 1990-02-01 21:00:00 TS -10.1050 69.4776 main 1689 1681 P___________P_ SH151990 -10.1050 69.4776 25 -1 -10.1050 69.4776 TC 25 1 0
1990031S09070 1990 9 SI MM DETY 1990-02-02 00:00:00 TS -10.2000 69.5000 main 1681 1667 O___________O_ jtwc_sh SH151990 -10.2000 69.5000 30 -1 -10.2000 69.5000 TC 30 4 158
1990031S09070 1990 9 SI MM DETY 1990-02-02 03:00:00 TS -10.5125 69.6499 main 1667 1654 P___________P_ SH151990 -10.5125 69.6499 30 -1 -10.5125 69.6499 TC 30 8 157
1990031S09070 1990 9 SI MM DETY 1990-02-02 06:00:00 TS -10.9000 69.8000 main 1654 1633 O___________O_ jtwc_sh SH151990 -10.9000 69.8000 30 -1 -10.9000 69.8000 TC 30 7 166
1990031S09070 1990 9 SI MM DETY 1990-02-02 09:00:00 TS -11.2075 69.8226 main 1633 1612 P___________P_ SH151990 -11.2075 69.8226 32 -1 -11.2075 69.8226 TC 32 6 0
1990031S09070 1990 9 SI MM DETY 1990-02-02 12:00:00 TS -11.4667 69.8222 24 1000 reunion main 1612 1589 O____O______O_ jtwc_sh SH151990 -11.5000 69.8000 35 0 -11.2000 70.0000 2 24 1000 9.90000 2.00000 -11.5000 69.8000 TC 35 6 189
1990031S09070 1990 9 SI MM DETY 1990-02-02 15:00:00 TS -11.7606 69.7331 main 1583 1554 P____P______P_ SH151990 -11.8000 69.8000 37 0 -11.6028 69.4656 2 26 998 -11.8000 69.8000 TC 37 6 197
1990031S09070 1990 9 SI MM DETY 1990-02-02 18:00:00 TS -12.0727 69.6364 28 997 reunion main 1554 1540 O____O______O_ jtwc_sh SH151990 -12.1000 69.8000 40 0 -12.0000 69.2000 2 28 997 9.90000 2.50000 -12.1000 69.8000 TC 40 6 186
1990031S09070 1990 9 SI MM DETY 1990-02-02 21:00:00 TS -12.3975 69.6657 main 1543 1523 P____P______P_ SH151990 -12.4000 69.8149 45 0 -12.3925 69.3671 2 32 994 -12.4000 69.8149 TC 45 7 169
1990031S09070 1990 9 SI MM DETY 1990-02-03 00:00:00 TS -12.7333 69.7667 36 991 reunion main 1532 1514 O____O______O_ jtwc_sh SH151990 -12.7000 69.8000 50 0 -12.8000 69.7000 3 36 991 9.90000 3.00000 -12.7000 69.8000 TC 50 7 169
1990031S09070 1990 9 SI MM DETY 1990-02-03 03:00:00 TS -13.0633 69.7973 main 1507 1480 P____P______P_ SH151990 -12.9775 69.7299 57 0 -13.2349 69.9322 3 40 987 -12.9775 69.7299 TC 57 7 183
1990031S09070 1990 9 SI MM DETY 1990-02-03 06:00:00 TS -13.4333 69.7333 44 984 reunion main 1480 1442 O____O______O_ jtwc_sh SH151990 -13.3000 69.6000 65 1 -13.7000 70.0000 3 44 984 9.90000 3.50000 -13.3000 69.6000 TC 65 9 196
1990031S09070 1990 9 SI MM DETY 1990-02-03 09:00:00 TS -13.9025 69.5501 main 1442 1392 P____P______P_ SH151990 -13.7349 69.4449 70 1 -14.2376 69.7605 3 48 980 -13.7349 69.4449 TC 70 10 206
1990031S09070 1990 9 SI MM DETY 1990-02-03 12:00:00 TS -14.3667 69.2667 52 976 reunion main 1386 1342 O____O______O_ jtwc_sh SH151990 -14.2000 69.2000 75 1 -14.7000 69.4000 3 52 976 9.90000 4.00000 -14.2000 69.2000 TC 75 10 216
1990031S09070 1990 9 SI MM DETY 1990-02-03 15:00:00 TS -14.7225 68.9316 main 1332 1288 P____P______P_ SH151990 -14.6226 68.8151 80 1 -14.9224 69.1646 3 57 971 -14.6226 68.8151 TC 80 10 225
1990031S09070 1990 9 SI MM DETY 1990-02-03 18:00:00 TS -15.0333 68.5667 62 966 reunion main 1288 1229 O____O______O_ jtwc_sh SH151990 -15.0000 68.4000 85 2 -15.1000 68.9000 3 62 966 9.90000 4.50000 -15.0000 68.4000 TC 85 9 226
1990031S09070 1990 9 SI MM DETY 1990-02-03 21:00:00 TS -15.3724 68.2283 main 1229 1185 P____P______P_ SH151990 -15.3299 68.0774 85 2 -15.4575 68.5302 3 67 960 -15.3299 68.0774 TC 85 9 225
1990031S09070 1990 9 SI MM DETY 1990-02-04 00:00:00 TS -15.6667 67.9000 72 954 reunion main 1185 1146 O____O______O_ jtwc_sh SH151990 -15.6000 67.8000 85 2 -15.8000 68.1000 4 72 954 9.90000 5.00000 -15.6000 67.8000 TC 85 8 231
1990031S09070 1990 9 SI MM DETY 1990-02-04 03:00:00 TS -15.8900 67.5533 main 1146 1112 P____P______P_ SH151990 -15.8375 67.5275 87 2 -15.9952 67.6049 4 72 954 -15.8375 67.5275 TC 87 7 239
1990031S09070 1990 9 SI MM DETY 1990-02-04 06:00:00 TS -16.0333 67.2667 72 954 reunion main 1112 1088 O____O______O_ jtwc_sh SH151990 -16.0000 67.3000 90 2 -16.1000 67.2000 4 72 954 9.90000 5.00000 -16.0000 67.3000 TC 90 5 243
1990031S09070 1990 9 SI MM DETY 1990-02-04 09:00:00 TS -16.1083 67.0982 main 1088 1079 P____P______P_ SH151990 -16.0800 67.1199 92 2 -16.1648 67.0549 4 72 954 -16.0800 67.1199 TC 92 3 249
1990031S09070 1990 9 SI MM DETY 1990-02-04 12:00:00 TS -16.1333 67.0000 72 954 reunion main 1079 1069 O____O______O_ jtwc_sh SH151990 -16.1000 67.0000 95 2 -16.2000 67.0000 4 72 954 9.90000 5.00000 -16.1000 67.0000 TC 95 2 257
1990031S09070 1990 9 SI MM DETY 1990-02-04 15:00:00 TS -16.1500 66.9042 main 1069 1055 P____P______P_ SH151990 -16.1000 66.9350 95 2 -16.2500 66.8425 4 72 954 -16.1000 66.9350 TC 95 2 258
1990031S09070 1990 9 SI MM DETY 1990-02-04 18:00:00 TS -16.1667 66.8333 72 954 reunion main 1055 1055 O____O______O_ jtwc_sh SH151990 -16.1000 66.9000 95 2 -16.3000 66.7000 4 72 954 9.90000 5.00000 -16.1000 66.9000 TC 95 1 248
1990031S09070 1990 9 SI MM DETY 1990-02-04 21:00:00 TS -16.2017 66.7758 main 1055 1040 P____P______P_ SH151990 -16.1350 66.8425 92 2 -16.3350 66.6425 4 72 954 -16.1350 66.8425 TC 92 1 223
1990031S09070 1990 9 SI MM DETY 1990-02-05 00:00:00 TS -16.2667 66.7333 72 954 reunion main 1040 1035 O____O______O_ jtwc_sh SH151990 -16.2000 66.8000 90 2 -16.4000 66.6000 4 72 954 9.90000 5.00000 -16.2000 66.8000 TC 90 2 210
1990031S09070 1990 9 SI MM DETY 1990-02-05 03:00:00 TS -16.3733 66.6750 main 1035 1030 P____P______P_ SH151990 -16.2925 66.7775 90 2 -16.5350 66.4701 4 67 960 -16.2925 66.7775 TC 90 2 197
1990031S09070 1990 9 SI MM DETY 1990-02-05 06:00:00 TS -16.5000 66.6667 62 966 reunion main 1030 1025 O____O______O_ jtwc_sh SH151990 -16.4000 66.8000 90 2 -16.7000 66.4000 3 62 966 9.90000 4.50000 -16.4000 66.8000 TC 90 3 166
1990031S09070 1990 9 SI MM DETY 1990-02-05 09:00:00 TS -16.6216 66.7433 main 1025 1025 P____P______P_ SH151990 -16.5075 66.8625 87 2 -16.8500 66.5050 3 62 966 -16.5075 66.8625 TC 87 3 136
1990031S09070 1990 9 SI MM DETY 1990-02-05 12:00:00 TS -16.7333 66.9000 62 966 reunion main 1040 1035 O____O______O_ jtwc_sh SH151990 -16.6000 67.0000 85 2 -17.0000 66.7000 3 62 966 9.90000 4.50000 -16.6000 67.0000 TC 85 4 121
1990031S09070 1990 9 SI MM DETY 1990-02-05 15:00:00 TS -16.8266 67.0933 main 1055 1055 P____P______P_ SH151990 -16.6500 67.2126 82 1 -17.1798 66.8549 3 57 971 -16.6500 67.2126 TC 82 5 110
1990031S09070 1990 9 SI MM DETY 1990-02-05 18:00:00 TS -16.9000 67.3667 52 976 reunion main 1080 1080 O____O______O_ jtwc_sh SH151990 -16.7000 67.5000 80 1 -17.3000 67.1000 3 52 976 9.90000 4.00000 -16.7000 67.5000 TC 80 6 102
1990031S09070 1990 9 SI MM DETY 1990-02-05 21:00:00 TS -16.9525 67.7151 main 1106 1106 P____P______P_ SH151990 -16.7924 67.8125 80 1 -17.2726 67.5202 3 52 976 -16.7924 67.8125 TC 80 7 98
1990031S09070 1990 9 SI MM DETY 1990-02-06 00:00:00 TS -17.0000 68.1333 52 976 reunion main 1145 1145 O____O______O_ jtwc_sh SH151990 -16.9000 68.2000 80 1 -17.2000 68.0000 3 52 976 9.90000 4.00000 -16.9000 68.2000 TC 80 8 97
1990031S09070 1990 9 SI MM DETY 1990-02-06 03:00:00 TS -17.0516 68.5801 main 1192 1192 P____P______P_ SH151990 -17.0000 68.6775 77 1 -17.1547 68.3853 3 48 980 -17.0000 68.6775 TC 77 9 98
1990031S09070 1990 9 SI MM DETY 1990-02-06 06:00:00 TS -17.1333 69.0667 44 984 reunion main 1242 1239 O____O______O_ jtwc_sh SH151990 -17.1000 69.2000 75 1 -17.2000 68.8000 3 44 984 9.90000 3.50000 -17.1000 69.2000 TC 75 10 103
1990031S09070 1990 9 SI MM DETY 1990-02-06 09:00:00 TS -17.2757 69.5633 main 1286 1286 P____P______P_ SH151990 -17.1998 69.6851 72 1 -17.4275 69.3197 3 48 980 -17.1998 69.6851 TC 72 10 107
1990031S09070 1990 9 SI MM DETY 1990-02-06 12:00:00 TS -17.4333 70.1000 52 976 reunion main 1334 1334 O____O______O_ jtwc_sh SH151990 -17.3000 70.2000 70 1 -17.7000 69.9000 3 52 976 9.90000 4.00000 -17.3000 70.2000 TC 70 11 105
1990031S09070 1990 9 SI MM DETY 1990-02-06 15:00:00 TS -17.5648 70.6725 main 1389 1389 P____P______P_ SH151990 -17.4074 70.7850 67 1 -17.8794 70.4477 3 52 976 -17.4074 70.7850 TC 67 12 102
1990031S09070 1990 9 SI MM DETY 1990-02-06 18:00:00 TS -17.6667 71.3000 52 976 reunion main 1448 1448 O____O______O_ jtwc_sh SH151990 -17.5000 71.4000 65 1 -18.0000 71.1000 3 52 976 9.90000 4.00000 -17.5000 71.4000 TC 65 13 98
1990031S09070 1990 9 SI MM DETY 1990-02-06 21:00:00 TS -17.7418 72.0074 main 1520 1520 P____P______P_ SH151990 -17.5649 72.0150 62 0 -18.0956 71.9923 3 52 976 -17.5649 72.0150 TC 62 13 94
1990031S09070 1990 9 SI MM DETY 1990-02-07 00:00:00 TS -17.7667 72.7000 52 976 reunion main 1590 1590 O____O______O_ jtwc_sh SH151990 -17.6000 72.6000 60 0 -18.1000 72.9000 3 52 976 9.90000 4.00000 -17.6000 72.6000 TC 60 12 91
1990031S09070 1990 9 SI MM DETY 1990-02-07 03:00:00 TS -17.7686 73.2622 main 1652 1652 P____P______P_ SH151990 -17.6523 73.1222 57 0 -18.0013 73.5423 3 52 976 -17.6523 73.1222 TC 57 11 85
1990031S09070 1990 9 SI MM DETY 1990-02-07 06:00:00 TS -17.6667 73.8000 52 976 reunion main 1706 1706 O____O______O_ jtwc_sh SH151990 -17.6000 73.6000 55 0 -17.8000 74.2000 3 52 976 9.90000 4.00000 -17.6000 73.6000 TC 55 12 73
1990031S09070 1990 9 SI MM DETY 1990-02-07 09:00:00 TS -17.4244 74.4621 main 1786 1786 P____P______P_ SH151990 -17.3751 74.1330 52 0 -17.5228 75.1203 3 52 976 -17.3751 74.1330 TC 52 13 63
1990031S09070 1990 9 SI MM DETY 1990-02-07 12:00:00 TS -17.0667 75.0333 52 976 reunion main 1845 1845 O____O______O_ jtwc_sh SH151990 -17.0000 74.5000 50 0 -17.2000 76.1000 3 52 976 9.90000 4.00000 -17.0000 74.5000 TC 50 12 49
1990031S09070 1990 9 SI MM DETY 1990-02-07 15:00:00 TS -16.6284 75.4032 main 1901 1901 P____P______P_ SH151990 -16.4848 74.5396 45 0 -16.9155 77.1303 3 48 980 -16.4848 74.5396 TC 45 11 40
1990031S09070 1990 9 SI MM DETY 1990-02-07 18:00:00 TS -16.2400 75.7600 44 984 reunion main 1954 1954 O____O______O_ jtwc_sh SH151990 -16.0000 74.4000 40 0 -16.6000 77.8000 3 44 984 9.90000 3.50000 -16.0000 74.4000 TC 40 9 38
1990031S09070 1990 9 SI MM DETY 1990-02-07 21:00:00 TS -15.8973 75.9980 main 1984 1984 P____P______P_ SH151990 -15.7301 74.2452 35 0 -16.0644 77.7508 3 40 987 -15.7301 74.2452 TC 35 7 42
1990031S09070 1990 9 SI MM DETY 1990-02-08 00:00:00 TS -15.7333 76.2333 36 991 reunion main 2011 2011 O____O______O_ jtwc_sh SH151990 -15.6000 74.1000 30 -1 -15.8000 77.3000 3 36 991 9.90000 3.00000 -15.6000 74.1000 TC 30 8 119
1990031S09070 1990 9 SI MM DETY 1990-02-08 03:00:00 TS -16.2955 76.7418 main 2043 1982 _____P________ SH151990 -1 -16.2955 76.7418 3 32 994 TC 13 177
1990031S09070 1990 9 SI MM DETY 1990-02-08 06:00:00 TS -17.0000 76.3000 28 997 reunion main 1982 1975 _____O________ -1 -17.0000 76.3000 2 28 997 9.90000 2.50000 11 200
1990031S09070 1990 9 SI MM DETY 1990-02-08 09:00:00 TS -17.3598 76.3444 main 1972 1972 _____P________ -1 -17.3598 76.3444 2 28 997 7 155
1990031S09070 1990 9 SI MM DETY 1990-02-08 12:00:00 TS -17.6000 76.6000 28 997 reunion main 1999 1996 _____O________ -1 -17.6000 76.6000 2 28 997 9.90000 2.50000 6 138
1990031S09070 1990 9 SI MM DETY 1990-02-08 15:00:00 TS -17.8300 76.7850 main 2015 2013 _____P________ -1 -17.8300 76.7850 2 26 998 6 136
1990031S09070 1990 9 SI MM DETY 1990-02-08 18:00:00 TS -18.0000 77.0000 24 1000 reunion main 2031 2031 _____O________ -1 -18.0000 77.0000 2 24 1000 9.90000 2.00000 5 122
1990031S09070 1990 9 SI MM DETY 1990-02-08 21:00:00 TS -18.0925 77.2352 main 2050 2050 _____P________ -1 -18.0925 77.2352 2 22 5 113
1990031S09070 1990 9 SI MM DETY 1990-02-09 00:00:00 TS -18.2000 77.5000 20 reunion main 2080 2080 _____O________ -1 -18.2000 77.5000 6 20 9.90000 1.50000 7 124
1990031S09070 1990 9 SI MM DETY 1990-02-09 03:00:00 TS -18.4576 77.8147 main 2105 2105 _____P________ -1 -18.4576 77.8147 6 20 8 131
1990031S09070 1990 9 SI MM DETY 1990-02-09 06:00:00 TS -18.7000 78.1000 20 reunion main 2133 2133 _____O________ -1 -18.7000 78.1000 6 20 9.90000 1.50000 5 127
1990031S09070 1990 9 SI MM DETY 1990-02-09 09:00:00 TS -18.7724 78.2577 main 2153 2153 _____P________ -1 -18.7724 78.2577 6 20 3 109
1990031S09070 1990 9 SI MM DETY 1990-02-09 12:00:00 TS -18.8000 78.4000 20 reunion main 2163 2163 _____O________ -1 -18.8000 78.4000 6 20 9.90000 1.50000 4 109
1990031S09070 1990 9 SI MM DETY 1990-02-09 15:00:00 TS -18.9001 78.6574 main 2193 2193 _____P________ -1 -18.9001 78.6574 6 20 5 113
1990031S09070 1990 9 SI MM DETY 1990-02-09 18:00:00 TS -19.0000 78.9000 20 reunion main 2212 2212 _____O________ -1 -19.0000 78.9000 6 20 9.90000 1.50000 4 114
1990031S09070 1990 9 SI MM DETY 1990-02-09 21:00:00 TS -19.0499 79.0226 main 2223 2221 _____P________ -1 -19.0499 79.0226 6 20 2 118
1990031S09070 1990 9 SI MM DETY 1990-02-10 00:00:00 TS -19.1000 79.1000 20 reunion main 2232 2230 _____O________ -1 -19.1000 79.1000 6 20 9.90000 1.50000 2 133
1990031S09070 1990 9 SI MM DETY 1990-02-10 03:00:00 TS -19.1699 79.1627 main 2241 2240 _____P________ -1 -19.1699 79.1627 6 20 3 136
1990031S09070 1990 9 SI MM DETY 1990-02-10 06:00:00 TS -19.3000 79.3000 20 reunion main 2250 2250 _____O________ -1 -19.3000 79.3000 6 20 9.90000 1.50000 6 131
1990031S09070 1990 9 SI MM DETY 1990-02-10 09:00:00 TS -19.5426 79.6197 main 2279 2278 _____P________ -1 -19.5426 79.6197 6 8 127
1990031S09070 1990 9 SI MM DETY 1990-02-10 12:00:00 TS -19.8000 80.0000 reunion main 2317 2317 _____O________ -1 -19.8000 80.0000 6 9.90000 8 122
1990031S09070 1990 9 SI MM DETY 1990-02-10 15:00:00 TS -19.9424 80.3078 main 2347 2346 _____P________ -1 -19.9424 80.3078 6 6 118
1990031S09070 1990 9 SI MM DETY 1990-02-10 18:00:00 TS -20.1000 80.6000 main 2377 2377 _____O________ -1 -20.1000 80.6000 6 9.90000 7 130
1990031S09070 1990 9 SI MM DETY 1990-02-10 21:00:00 TS -20.3999 80.8849 main 2406 2405 _____P________ -1 -20.3999 80.8849 6 8 137
1990031S09070 1990 9 SI MM DETY 1990-02-11 00:00:00 TS -20.7000 81.2000 main 2435 2435 _____O________ -1 -20.7000 81.2000 6 9.90000 8 127
1990031S09070 1990 9 SI MM DETY 1990-02-11 03:00:00 TS -20.8878 81.5800 main 2475 2475 _____P________ -1 -20.8878 81.5800 6 8 112
1990031S09070 1990 9 SI MM DETY 1990-02-11 06:00:00 TS -21.0000 82.0000 main 2516 _____O________ -1 -21.0000 82.0000 6 9.90000 8 106

IBTrACS Databaseについて

本データベースは、米国NOAAが公開する1842年以降の世界の熱帯低気圧のベストトラックデータアーカイブInternational Best Track Archive for Climate Stewardship (IBTrACS)を、ウェブで閲覧しやすい形式に変換したものです。

最終更新日:2021-10-19